createdAt,value
2019-04-28T00:00:18.582Z,100491.80
2019-04-28T00:02:50.793Z,100497.38
2019-04-28T00:05:23.204Z,100488.02
2019-04-28T00:07:54.242Z,100491.11
2019-04-28T00:10:25.428Z,100485.91
2019-04-28T00:12:56.375Z,100489.95
2019-04-28T00:15:27.401Z,100483.58
2019-04-28T00:17:59.497Z,100487.87
2019-04-28T00:20:52.211Z,100490.79
2019-04-28T00:23:32.673Z,100494.52
2019-04-28T00:26:14.667Z,100503.30
2019-04-28T00:28:45.603Z,100496.66
2019-04-28T00:31:17.879Z,100502.16
2019-04-28T00:33:51.134Z,100501.89
2019-04-28T00:36:21.937Z,100501.67
2019-04-28T00:38:54.626Z,100485.15
2019-04-28T00:41:26.393Z,100504.55
2019-04-28T00:43:57.684Z,100503.05
2019-04-28T00:46:33.109Z,100508.58
2019-04-28T00:49:04.185Z,100512.75
2019-04-28T00:51:35.210Z,100509.11
2019-04-28T00:54:06.278Z,100512.45
2019-04-28T00:56:37.314Z,100503.22
2019-04-28T00:59:08.599Z,100506.00
2019-04-28T01:01:46.011Z,100507.41
2019-04-28T01:04:17.362Z,100508.64
2019-04-28T01:06:48.688Z,100510.05
2019-04-28T01:09:21.809Z,100501.29
2019-04-28T01:11:53.372Z,100509.66
2019-04-28T01:14:25.809Z,100505.16
2019-04-28T01:17:03.546Z,100509.19
2019-04-28T01:19:37.118Z,100511.84
2019-04-28T01:22:12.413Z,100515.84
2019-04-28T01:24:43.466Z,100509.05
2019-04-28T01:27:36.479Z,100511.89
2019-04-28T01:30:12.424Z,100513.53
2019-04-28T01:32:49.840Z,100505.63
2019-04-28T01:35:21.877Z,100513.53
2019-04-28T01:37:53.310Z,100527.80
2019-04-28T01:40:24.291Z,100528.50
2019-04-28T01:42:55.349Z,100528.89
2019-04-28T01:45:26.332Z,100529.19
2019-04-28T01:48:00.481Z,100527.81
2019-04-28T01:50:30.913Z,100532.53
2019-04-28T01:53:02.475Z,100531.97
2019-04-28T01:55:34.451Z,100530.98
2019-04-28T01:58:05.419Z,100535.87
2019-04-28T02:00:36.461Z,100539.53
2019-04-28T02:03:08.039Z,100542.20
2019-04-28T02:05:40.517Z,100539.41
2019-04-28T02:08:11.732Z,100536.42
2019-04-28T02:10:43.164Z,100548.56
2019-04-28T02:13:14.273Z,100546.47
2019-04-28T02:15:45.960Z,100545.94
2019-04-28T02:18:17.317Z,100543.83
2019-04-28T02:20:53.446Z,100547.79
2019-04-28T02:23:29.849Z,100546.06
2019-04-28T02:26:00.975Z,100546.38
2019-04-28T02:28:32.607Z,100552.49
2019-04-28T02:31:03.644Z,100548.61
2019-04-28T02:33:34.600Z,100550.27
2019-04-28T02:36:08.691Z,100551.39
2019-04-28T02:38:41.374Z,100549.10
2019-04-28T02:41:12.025Z,100558.83
2019-04-28T02:43:43.027Z,100552.81
2019-04-28T02:46:14.510Z,100553.59
2019-04-28T02:48:45.618Z,100557.02
2019-04-28T02:51:23.731Z,100559.74
2019-04-28T02:53:55.217Z,100559.27
2019-04-28T02:56:27.268Z,100561.47
2019-04-28T02:59:00.840Z,100566.99
2019-04-28T03:01:31.243Z,100571.22
2019-04-28T03:04:02.446Z,100569.63
2019-04-28T03:06:33.604Z,100570.88
2019-04-28T03:09:05.870Z,100564.89
2019-04-28T03:11:36.868Z,100566.52
2019-04-28T03:14:11.026Z,100566.52
2019-04-28T03:16:41.235Z,100585.28
2019-04-28T03:19:12.335Z,100585.28
2019-04-28T03:21:43.383Z,100581.39
2019-04-28T03:24:15.486Z,100580.70
2019-04-28T03:26:56.731Z,100587.70
2019-04-28T03:29:34.561Z,100588.84
2019-04-28T03:32:37.406Z,100596.71
2019-04-28T03:34:55.761Z,100596.02
2019-04-28T03:37:26.779Z,100599.63
2019-04-28T03:40:00.545Z,100603.89
2019-04-28T03:42:31.496Z,100606.00
2019-04-28T03:45:04.642Z,100605.41
2019-04-28T03:47:35.650Z,100612.06
2019-04-28T03:50:07.205Z,100613.37
2019-04-28T03:52:41.442Z,100618.52
2019-04-28T03:55:12.125Z,100616.53
2019-04-28T03:57:43.168Z,100610.64
2019-04-28T04:00:15.436Z,100618.73
2019-04-28T04:02:46.515Z,100621.13
2019-04-28T04:05:17.528Z,100615.07
2019-04-28T04:07:50.643Z,100617.27
2019-04-28T04:10:52.485Z,100617.27
2019-04-28T04:13:33.044Z,100624.03
2019-04-28T04:16:22.193Z,100623.37
2019-04-28T04:18:54.707Z,100617.84
2019-04-28T04:21:25.675Z,100620.16
2019-04-28T04:23:56.639Z,100625.66
2019-04-28T04:26:27.656Z,100626.49
2019-04-28T04:29:00.979Z,100625.04
2019-04-28T04:31:32.141Z,100632.52
2019-04-28T04:34:04.258Z,100636.09
2019-04-28T04:36:35.327Z,100638.77
2019-04-28T04:39:10.632Z,100645.30
2019-04-28T04:41:43.652Z,100647.91
2019-04-28T04:44:14.104Z,100650.42
2019-04-28T04:46:45.126Z,100647.11
2019-04-28T04:49:16.218Z,100614.89
2019-04-28T04:51:50.671Z,100657.34
2019-04-28T04:54:20.762Z,100661.42
2019-04-28T04:56:51.975Z,100667.81
2019-04-28T04:59:22.962Z,100673.90
2019-04-28T05:02:29.240Z,100680.75
2019-04-28T05:05:00.454Z,100682.41
2019-04-28T05:07:31.618Z,100684.82
2019-04-28T05:10:02.580Z,100687.98
2019-04-28T05:12:33.592Z,100690.15
2019-04-28T05:15:04.895Z,100697.61
2019-04-28T05:17:35.937Z,100698.28
2019-04-28T05:20:09.551Z,100701.80
2019-04-28T05:22:50.580Z,100696.59
2019-04-28T05:25:30.971Z,100696.00
2019-04-28T05:28:02.905Z,100696.44
2019-04-28T05:30:34.962Z,100702.82
2019-04-28T05:33:06.458Z,100702.48
2019-04-28T05:35:37.511Z,100707.22
2019-04-28T05:38:09.926Z,100717.26
2019-04-28T05:40:41.081Z,100720.53
2019-04-28T05:43:12.133Z,100720.07
2019-04-28T05:45:43.135Z,100721.97
2019-04-28T05:48:14.095Z,100717.56
2019-04-28T05:51:01.851Z,100726.62
2019-04-28T05:53:47.214Z,100726.47
2019-04-28T05:56:36.464Z,100729.17
2019-04-28T05:59:15.239Z,100734.73
2019-04-28T06:02:02.191Z,100734.45
2019-04-28T06:04:33.157Z,100730.96
2019-04-28T06:07:11.909Z,100732.86
2019-04-28T06:09:46.567Z,100732.95
2019-04-28T06:12:20.020Z,100728.58
2019-04-28T06:14:51.054Z,100731.33
2019-04-28T06:17:22.360Z,100731.45
2019-04-28T06:19:53.567Z,100724.58
2019-04-28T06:22:25.229Z,100724.16
2019-04-28T06:24:57.479Z,100733.70
2019-04-28T06:27:28.661Z,100740.44
2019-04-28T06:29:59.727Z,100738.76
2019-04-28T06:32:30.670Z,100743.41
2019-04-28T06:35:01.907Z,100749.05
2019-04-28T06:37:33.159Z,100746.94
2019-04-28T06:40:04.249Z,100753.16
2019-04-28T06:42:35.319Z,100754.75
2019-04-28T06:45:06.439Z,100753.27
2019-04-28T06:47:38.197Z,100754.14
2019-04-28T06:50:09.248Z,100756.97
2019-04-28T06:52:40.506Z,100762.52
2019-04-28T06:55:11.982Z,100755.95
2019-04-28T06:57:43.233Z,100761.74
2019-04-28T07:00:14.598Z,100760.42
2019-04-28T07:02:45.712Z,100764.94
2019-04-28T07:05:16.729Z,100764.61
2019-04-28T07:07:47.812Z,100761.59
2019-04-28T07:10:19.173Z,100763.09
2019-04-28T07:12:50.248Z,100764.75
2019-04-28T07:15:21.212Z,100766.65
2019-04-28T07:17:52.318Z,100768.28
2019-04-28T07:20:39.026Z,100768.28
2019-04-28T07:23:10.388Z,100772.31
2019-04-28T07:25:42.753Z,100771.75
2019-04-28T07:28:14.802Z,100772.39
2019-04-28T07:30:46.138Z,100776.58
2019-04-28T07:33:17.222Z,100772.86
2019-04-28T07:35:48.221Z,100780.22
2019-04-28T07:38:19.786Z,100781.92
2019-04-28T07:40:50.878Z,100786.14
2019-04-28T07:43:21.823Z,100786.22
2019-04-28T07:45:52.804Z,100787.21
2019-04-28T07:48:24.106Z,100798.36
2019-04-28T07:50:55.344Z,100789.99
2019-04-28T07:53:32.102Z,100796.44
2019-04-28T07:56:03.401Z,100798.87
2019-04-28T07:58:34.898Z,100804.39
2019-04-28T08:01:07.902Z,100799.13
2019-04-28T08:03:48.804Z,100807.28
2019-04-28T08:06:12.321Z,100808.91
2019-04-28T08:08:43.285Z,100811.00
2019-04-28T08:11:14.353Z,100816.30
2019-04-28T08:13:45.900Z,100812.16
2019-04-28T08:16:16.778Z,100817.14
2019-04-28T08:18:47.722Z,100813.80
2019-04-28T08:21:18.770Z,100819.70
2019-04-28T08:23:50.604Z,100825.14
2019-04-28T08:26:21.700Z,100826.47
2019-04-28T08:28:54.245Z,100822.73
2019-04-28T08:31:29.407Z,100826.55
2019-04-28T08:34:03.487Z,100831.23
2019-04-28T08:36:34.524Z,100832.16
2019-04-28T08:39:07.110Z,100830.74
2019-04-28T08:41:38.315Z,100839.14
2019-04-28T08:44:09.710Z,100843.42
2019-04-28T08:46:41.015Z,100843.52
2019-04-28T08:49:12.304Z,100839.20
2019-04-28T08:51:44.444Z,100843.67
2019-04-28T08:54:15.927Z,100845.81
2019-04-28T08:56:47.684Z,100850.09
2019-04-28T08:59:18.656Z,100855.79
2019-04-28T09:01:49.695Z,100855.93
2019-04-28T09:04:20.681Z,100856.64
2019-04-28T09:06:52.152Z,100858.27
2019-04-28T09:09:23.611Z,100868.39
2019-04-28T09:11:55.168Z,100869.45
2019-04-28T09:14:26.531Z,100869.30
2019-04-28T09:16:57.500Z,100869.11
2019-04-28T09:19:29.311Z,100871.77
2019-04-28T09:22:00.308Z,100872.88
2019-04-28T09:24:31.645Z,100873.11
2019-04-28T09:27:02.564Z,100874.27
2019-04-28T09:29:33.634Z,100883.23
2019-04-28T09:32:04.776Z,100888.14
2019-04-28T09:34:35.821Z,100884.14
2019-04-28T09:37:07.199Z,100887.05
2019-04-28T09:40:01.114Z,100887.84
2019-04-28T09:42:51.390Z,100890.30
2019-04-28T09:45:25.061Z,100897.16
2019-04-28T09:47:56.127Z,100902.66
2019-04-28T09:50:27.221Z,100901.47
2019-04-28T09:52:58.193Z,100898.33
2019-04-28T09:55:29.181Z,100904.19
2019-04-28T09:58:00.176Z,100892.13
2019-04-28T10:00:31.129Z,100893.62
2019-04-28T10:03:02.235Z,100895.29
2019-04-28T10:05:33.259Z,100892.14
2019-04-28T10:08:04.671Z,100888.33
2019-04-28T10:10:35.781Z,100885.76
2019-04-28T10:13:07.086Z,100890.97
2019-04-28T10:15:38.512Z,100882.47
2019-04-28T10:18:09.847Z,100879.45
2019-04-28T10:20:42.154Z,100888.73
2019-04-28T10:23:13.422Z,100886.63
2019-04-28T10:25:44.918Z,100889.49
2019-04-28T10:28:16.751Z,100886.41
2019-04-28T10:30:48.211Z,100889.12
2019-04-28T10:33:19.242Z,100888.47
2019-04-28T10:35:50.555Z,100888.94
2019-04-28T10:38:21.506Z,100888.17
2019-04-28T10:41:03.523Z,100885.23
2019-04-28T10:43:34.553Z,100886.59
2019-04-28T10:46:05.817Z,100892.16
2019-04-28T10:48:37.183Z,100881.91
2019-04-28T10:51:08.275Z,100881.31
2019-04-28T10:53:39.573Z,100880.36
2019-04-28T10:56:10.611Z,100888.37
2019-04-28T10:58:44.045Z,100876.80
2019-04-28T11:01:15.842Z,100877.10
2019-04-28T11:03:49.895Z,100876.82
2019-04-28T11:06:21.216Z,100889.83
2019-04-28T11:09:11.279Z,100887.56
2019-04-28T11:11:42.585Z,100881.08
2019-04-28T11:14:14.314Z,100887.02
2019-04-28T11:16:45.458Z,100887.02
2019-04-28T11:19:16.629Z,100882.23
2019-04-28T11:21:47.762Z,100889.30
2019-04-28T11:24:18.769Z,100888.91
2019-04-28T11:26:49.841Z,100893.39
2019-04-28T11:29:21.228Z,100895.92
2019-04-28T11:31:53.515Z,100895.06
2019-04-28T11:34:31.464Z,100900.31
2019-04-28T11:37:02.561Z,100906.09
2019-04-28T11:39:36.388Z,100912.65
2019-04-28T11:42:07.609Z,100915.87
2019-04-28T11:44:38.652Z,100913.39
2019-04-28T11:47:12.491Z,100915.61
2019-04-28T11:49:45.037Z,100919.63
2019-04-28T11:52:16.441Z,100919.66
2019-04-28T11:54:47.782Z,100917.14
2019-04-28T11:57:19.385Z,100920.23
2019-04-28T11:59:50.805Z,100923.81
2019-04-28T12:02:21.789Z,100927.63
2019-04-28T12:04:54.719Z,100932.97
2019-04-28T12:07:26.892Z,100937.36
2019-04-28T12:10:05.905Z,100938.52
2019-04-28T12:12:44.890Z,100936.50
2019-04-28T12:15:43.554Z,100947.88
2019-04-28T12:18:33.559Z,100951.59
2019-04-28T12:21:04.866Z,100951.22
2019-04-28T12:23:35.864Z,100954.12
2019-04-28T12:26:07.900Z,100955.59
2019-04-28T12:28:39.203Z,100954.98
2019-04-28T12:31:10.260Z,100949.55
2019-04-28T12:33:42.510Z,100957.88
2019-04-28T12:36:13.763Z,100957.08
2019-04-28T12:38:44.699Z,100965.50
2019-04-28T12:41:16.056Z,100963.02
2019-04-28T12:43:47.380Z,100962.41
2019-04-28T12:46:18.733Z,100968.49
2019-04-28T12:48:53.931Z,100970.83
2019-04-28T12:51:25.100Z,100972.02
2019-04-28T12:54:00.299Z,100967.64
2019-04-28T12:56:31.825Z,100971.55
2019-04-28T12:59:10.180Z,100970.58
2019-04-28T13:01:50.801Z,100967.86
2019-04-28T13:04:35.468Z,100969.64
2019-04-28T13:07:08.456Z,100967.93
2019-04-28T13:09:39.492Z,100970.51
2019-04-28T13:12:10.562Z,100967.75
2019-04-28T13:14:41.494Z,100971.83
2019-04-28T13:17:12.567Z,100976.41
2019-04-28T13:19:43.911Z,100975.53
2019-04-28T13:22:14.964Z,100968.61
2019-04-28T13:24:46.914Z,100976.29
2019-04-28T13:27:17.963Z,100970.11
2019-04-28T13:29:49.104Z,100975.36
2019-04-28T13:32:20.643Z,100979.67
2019-04-28T13:34:52.104Z,100980.84
2019-04-28T13:37:23.678Z,100979.34
2019-04-28T13:39:58.867Z,100987.92
2019-04-28T13:42:29.871Z,100987.01
2019-04-28T13:45:05.812Z,100982.14
2019-04-28T13:47:37.607Z,100986.56
2019-04-28T13:50:17.476Z,100979.33
2019-04-28T13:52:49.486Z,100980.77
2019-04-28T13:55:38.293Z,100972.16
2019-04-28T13:58:09.365Z,100975.17
2019-04-28T14:01:01.861Z,100980.56
2019-04-28T14:04:04.251Z,100972.78
2019-04-28T14:06:39.127Z,100972.22
2019-04-28T14:09:16.293Z,100979.30
2019-04-28T14:11:47.451Z,100975.58
2019-04-28T14:14:18.772Z,100974.48
2019-04-28T14:16:50.146Z,100973.91
2019-04-28T14:19:21.149Z,100975.20
2019-04-28T14:21:52.313Z,100976.76
2019-04-28T14:24:23.414Z,100972.03
2019-04-28T14:26:54.930Z,100972.57
2019-04-28T14:29:27.053Z,100963.73
2019-04-28T14:31:58.281Z,100966.47
2019-04-28T14:34:29.767Z,100975.20
2019-04-28T14:37:01.101Z,100964.71
2019-04-28T14:39:32.337Z,100968.00
2019-04-28T14:42:03.918Z,100971.16
2019-04-28T14:44:35.265Z,100961.33
2019-04-28T14:47:07.116Z,100963.72
2019-04-28T14:49:38.180Z,100968.02
2019-04-28T14:52:09.924Z,100954.13
2019-04-28T14:54:41.719Z,100954.12
2019-04-28T14:57:12.862Z,100950.89
2019-04-28T14:59:44.460Z,100957.40
2019-04-28T15:02:25.308Z,100964.67
2019-04-28T15:05:30.711Z,100962.93
2019-04-28T15:08:16.028Z,100966.23
2019-04-28T15:10:59.445Z,100964.95
2019-04-28T15:13:30.538Z,100963.66
2019-04-28T15:16:01.990Z,100965.28
2019-04-28T15:18:33.438Z,100972.19
2019-04-28T15:21:04.531Z,100966.02
2019-04-28T15:23:36.048Z,100963.48
2019-04-28T15:26:07.814Z,100963.27
2019-04-28T15:28:39.117Z,100967.08
2019-04-28T15:31:10.074Z,100948.41
2019-04-28T15:33:41.367Z,100965.38
2019-04-28T15:36:13.111Z,100967.22
2019-04-28T15:38:44.349Z,100969.26
2019-04-28T15:41:21.776Z,100969.13
2019-04-28T15:43:48.819Z,100969.08
2019-04-28T15:46:20.648Z,100967.05
2019-04-28T15:48:51.916Z,100964.89
2019-04-28T15:51:23.274Z,100967.95
2019-04-28T15:53:54.259Z,100967.03
2019-04-28T15:56:40.122Z,100966.60
2019-04-28T15:59:11.615Z,100962.18
2019-04-28T16:01:42.800Z,100963.45
2019-04-28T16:04:13.761Z,100966.22
2019-04-28T16:06:44.947Z,100970.39
2019-04-28T16:09:16.408Z,100970.45
2019-04-28T16:11:47.494Z,100966.92
2019-04-28T16:14:18.581Z,100978.41
2019-04-28T16:16:50.765Z,100967.83
2019-04-28T16:19:22.354Z,100975.09
2019-04-28T16:21:53.727Z,100979.01
2019-04-28T16:24:24.832Z,100973.36
2019-04-28T16:26:55.920Z,100971.87
2019-04-28T16:29:26.868Z,100973.27
2019-04-28T16:31:58.577Z,100976.63
2019-04-28T16:34:29.589Z,100981.37
2019-04-28T16:37:01.030Z,100991.73
2019-04-28T16:39:32.268Z,100985.13
2019-04-28T16:42:09.665Z,100989.12
2019-04-28T16:44:45.851Z,100985.42
2019-04-28T16:47:17.595Z,100987.13
2019-04-28T16:49:48.562Z,100989.60
2019-04-28T16:52:22.658Z,100988.58
2019-04-28T16:55:12.694Z,100989.60
2019-04-28T16:57:51.406Z,100988.09
2019-04-28T17:00:48.093Z,100988.30
2019-04-28T17:03:19.344Z,100991.14
2019-04-28T17:05:50.993Z,100993.02
2019-04-28T17:08:57.854Z,100997.67
2019-04-28T17:11:28.927Z,101010.25
2019-04-28T17:14:01.387Z,101007.60
2019-04-28T17:16:32.752Z,101012.63
2019-04-28T17:19:05.775Z,101006.75
2019-04-28T17:21:37.275Z,101008.37
2019-04-28T17:24:08.261Z,101003.81
2019-04-28T17:26:39.403Z,101013.00
2019-04-28T17:29:10.579Z,101016.25
2019-04-28T17:31:41.755Z,101014.16
2019-04-28T17:34:13.929Z,101022.90
2019-04-28T17:36:45.599Z,101028.28
2019-04-28T17:39:22.187Z,101021.75
2019-04-28T17:41:53.637Z,101021.89
2019-04-28T17:44:26.161Z,101022.35
2019-04-28T17:46:57.190Z,101027.21
2019-04-28T17:49:33.563Z,101034.43
2019-04-28T17:52:06.306Z,101030.25
2019-04-28T17:54:39.490Z,101037.80
2019-04-28T17:57:10.754Z,101042.95
2019-04-28T17:59:42.379Z,101041.95
2019-04-28T18:02:32.473Z,101049.23
2019-04-28T18:05:31.848Z,101044.82
2019-04-28T18:08:04.769Z,101046.37
2019-04-28T18:10:37.295Z,101053.87
2019-04-28T18:13:08.581Z,101058.59
2019-04-28T18:15:57.498Z,101063.16
2019-04-28T18:18:47.906Z,101069.34
2019-04-28T18:21:20.405Z,101060.14
2019-04-28T18:23:52.423Z,101075.39
2019-04-28T18:26:24.721Z,101070.23
2019-04-28T18:28:55.798Z,101078.44
2019-04-28T18:31:40.479Z,101081.09
2019-04-28T18:34:31.533Z,101096.41
2019-04-28T18:37:19.241Z,101101.59
2019-04-28T18:40:07.808Z,101098.95
2019-04-28T18:42:44.244Z,101101.66
2019-04-28T18:45:17.059Z,101113.23
2019-04-28T18:47:48.521Z,101113.30
2019-04-28T18:50:19.766Z,101116.61
2019-04-28T18:52:51.308Z,101111.63
2019-04-28T18:55:31.690Z,101123.38
2019-04-28T18:58:06.321Z,101125.45
2019-04-28T19:00:40.160Z,101132.31
2019-04-28T19:03:12.309Z,101125.75
2019-04-28T19:05:45.171Z,101138.84
2019-04-28T19:08:48.145Z,101142.54
2019-04-28T19:11:32.462Z,101142.54
2019-04-28T19:14:12.707Z,101142.84
2019-04-28T19:17:09.106Z,101143.79
2019-04-28T19:19:41.054Z,101155.09
2019-04-28T19:22:12.138Z,101154.25
2019-04-28T19:24:43.229Z,101153.86
2019-04-28T19:27:14.343Z,101158.77
2019-04-28T19:29:45.586Z,101157.59
2019-04-28T19:32:18.536Z,101159.16
2019-04-28T19:34:50.262Z,101161.01
2019-04-28T19:37:21.479Z,101162.81
2019-04-28T19:39:52.727Z,101169.30
2019-04-28T19:42:24.297Z,101178.61
2019-04-28T19:44:56.106Z,101173.20
2019-04-28T19:47:27.343Z,101173.61
2019-04-28T19:50:00.354Z,101170.21
2019-04-28T19:52:32.127Z,101144.92
2019-04-28T19:55:15.495Z,101184.38
2019-04-28T19:57:51.928Z,101183.23
2019-04-28T20:00:26.878Z,101183.23
2019-04-28T20:02:58.367Z,101182.22
2019-04-28T20:05:29.685Z,101188.91
2019-04-28T20:08:01.522Z,101189.13
2019-04-28T20:10:32.819Z,101195.22
2019-04-28T20:13:03.905Z,101190.35
2019-04-28T20:15:34.928Z,101194.26
2019-04-28T20:18:06.142Z,101200.83
2019-04-28T20:20:38.058Z,101202.35
2019-04-28T20:23:09.119Z,101196.48
2019-04-28T20:25:40.586Z,101205.74
2019-04-28T20:28:11.992Z,101207.34
2019-04-28T20:30:43.129Z,101208.55
2019-04-28T20:33:14.323Z,101212.20
2019-04-28T20:35:53.843Z,101214.15
2019-04-28T20:38:30.856Z,101217.28
2019-04-28T20:41:18.065Z,101212.38
2019-04-28T20:43:49.045Z,101193.66
2019-04-28T20:46:20.347Z,101216.81
2019-04-28T20:48:52.149Z,101218.30
2019-04-28T20:51:23.214Z,101222.57
2019-04-28T20:53:54.172Z,101227.22
2019-04-28T20:56:25.868Z,101224.08
2019-04-28T20:58:57.481Z,101230.89
2019-04-28T21:01:28.574Z,101208.75
2019-04-28T21:03:59.908Z,101232.98
2019-04-28T21:06:31.187Z,101228.08
2019-04-28T21:09:02.680Z,101236.87
2019-04-28T21:11:35.332Z,101236.22
2019-04-28T21:14:06.368Z,101235.11
2019-04-28T21:16:37.393Z,101244.73
2019-04-28T21:19:08.380Z,101238.13
2019-04-28T21:21:39.332Z,101233.13
2019-04-28T21:24:10.542Z,101239.02
2019-04-28T21:26:42.932Z,101239.39
2019-04-28T21:29:14.156Z,101237.03
2019-04-28T21:31:45.189Z,101235.24
2019-04-28T21:34:16.410Z,101243.66
2019-04-28T21:36:47.519Z,101244.99
2019-04-28T21:39:18.623Z,101238.83
2019-04-28T21:41:50.300Z,101239.81
2019-04-28T21:44:37.573Z,101240.67
2019-04-28T21:47:27.898Z,101247.55
2019-04-28T21:49:59.170Z,101238.92
2019-04-28T21:52:30.199Z,101240.68
2019-04-28T21:55:01.194Z,101242.10
2019-04-28T21:57:32.670Z,101245.11
2019-04-28T22:00:05.141Z,101252.04
2019-04-28T22:02:35.431Z,101247.42
2019-04-28T22:05:06.558Z,101249.12
2019-04-28T22:07:37.912Z,101236.81
2019-04-28T22:10:09.073Z,101247.77
2019-04-28T22:12:40.046Z,101249.53
2019-04-28T22:15:11.543Z,101247.89
2019-04-28T22:17:42.583Z,101242.10
2019-04-28T22:20:13.623Z,101248.23
2019-04-28T22:22:44.667Z,101255.44
2019-04-28T22:25:20.775Z,101249.83
2019-04-28T22:27:51.718Z,101251.86
2019-04-28T22:30:23.291Z,101248.78
2019-04-28T22:32:54.673Z,101250.23
2019-04-28T22:35:26.324Z,101256.97
2019-04-28T22:37:57.308Z,101254.05
2019-04-28T22:40:28.375Z,101252.96
2019-04-28T22:42:59.678Z,101259.45
2019-04-28T22:45:31.709Z,101255.27
2019-04-28T22:48:03.469Z,101257.54
2019-04-28T22:50:47.953Z,101263.27
2019-04-28T22:53:21.274Z,101265.38
2019-04-28T22:55:58.787Z,101239.27
2019-04-28T22:58:39.954Z,101266.61
2019-04-28T23:01:18.445Z,101269.38
2019-04-28T23:04:01.929Z,101269.28
2019-04-28T23:06:32.985Z,101270.57
2019-04-28T23:09:04.187Z,101275.96
2019-04-28T23:11:36.822Z,101278.77
2019-04-28T23:14:07.803Z,101278.00
2019-04-28T23:16:39.174Z,101280.30
2019-04-28T23:19:12.431Z,101285.84
2019-04-28T23:21:58.891Z,101282.79
2019-04-28T23:24:30.327Z,101286.74
2019-04-28T23:27:01.567Z,101283.55
2019-04-28T23:29:33.152Z,101285.88
2019-04-28T23:32:04.340Z,101281.25
2019-04-28T23:34:36.251Z,101286.14
2019-04-28T23:37:07.620Z,101275.55
2019-04-28T23:39:38.673Z,101274.40
2019-04-28T23:42:16.516Z,101279.42
2019-04-28T23:44:47.553Z,101281.42
2019-04-28T23:47:18.853Z,101285.42
2019-04-28T23:49:49.904Z,101277.52
2019-04-28T23:52:48.769Z,101284.36
2019-04-28T23:55:22.931Z,101279.94
2019-04-28T23:57:53.929Z,101282.73
